sensor_id;sensor_type;location;lat;lon;timestamp;P1;durP1;ratioP1;P2;durP2;ratioP2
78686;SDS011;68002;52.310;6.990;2023-05-10T00:01:05;11.07;;;5.07;;
78686;SDS011;68002;52.310;6.990;2023-05-10T00:03:30;13.30;;;6.15;;
78686;SDS011;68002;52.310;6.990;2023-05-10T00:05:55;14.80;;;6.07;;
78686;SDS011;68002;52.310;6.990;2023-05-10T00:08:20;13.23;;;5.80;;
78686;SDS011;68002;52.310;6.990;2023-05-10T00:10:46;16.63;;;6.80;;
78686;SDS011;68002;52.310;6.990;2023-05-10T00:13:11;18.63;;;7.77;;
78686;SDS011;68002;52.310;6.990;2023-05-10T00:15:36;16.93;;;7.07;;
78686;SDS011;68002;52.310;6.990;2023-05-10T00:18:01;18.70;;;7.47;;
78686;SDS011;68002;52.310;6.990;2023-05-10T00:20:27;13.48;;;5.32;;
78686;SDS011;68002;52.310;6.990;2023-05-10T00:22:52;9.30;;;4.10;;
78686;SDS011;68002;52.310;6.990;2023-05-10T00:25:17;8.27;;;3.67;;
78686;SDS011;68002;52.310;6.990;2023-05-10T00:27:43;7.77;;;3.57;;
78686;SDS011;68002;52.310;6.990;2023-05-10T00:30:08;8.93;;;3.60;;
78686;SDS011;68002;52.310;6.990;2023-05-10T00:32:33;6.93;;;3.10;;
78686;SDS011;68002;52.310;6.990;2023-05-10T00:34:59;8.10;;;4.28;;
78686;SDS011;68002;52.310;6.990;2023-05-10T00:37:24;6.70;;;3.60;;
78686;SDS011;68002;52.310;6.990;2023-05-10T00:39:49;8.17;;;5.03;;
78686;SDS011;68002;52.310;6.990;2023-05-10T00:42:14;8.00;;;4.23;;
78686;SDS011;68002;52.310;6.990;2023-05-10T00:44:40;7.57;;;4.07;;
78686;SDS011;68002;52.310;6.990;2023-05-10T00:47:05;8.73;;;4.87;;
78686;SDS011;68002;52.310;6.990;2023-05-10T00:49:30;8.27;;;4.32;;
78686;SDS011;68002;52.310;6.990;2023-05-10T00:51:55;8.23;;;4.90;;
78686;SDS011;68002;52.310;6.990;2023-05-10T00:54:21;9.20;;;4.53;;
78686;SDS011;68002;52.310;6.990;2023-05-10T00:56:46;9.00;;;4.97;;
78686;SDS011;68002;52.310;6.990;2023-05-10T00:59:11;8.97;;;5.03;;
78686;SDS011;68002;52.310;6.990;2023-05-10T01:01:37;9.27;;;4.93;;
78686;SDS011;68002;52.310;6.990;2023-05-10T01:04:02;10.60;;;5.05;;
78686;SDS011;68002;52.310;6.990;2023-05-10T01:06:28;10.63;;;5.43;;
78686;SDS011;68002;52.310;6.990;2023-05-10T01:08:53;9.93;;;5.23;;
78686;SDS011;68002;52.310;6.990;2023-05-10T01:11:18;10.00;;;6.07;;
78686;SDS011;68002;52.310;6.990;2023-05-10T01:13:44;10.13;;;5.03;;
78686;SDS011;68002;52.310;6.990;2023-05-10T01:16:17;9.60;;;5.40;;
78686;SDS011;68002;52.310;6.990;2023-05-10T01:18:42;11.75;;;6.35;;
78686;SDS011;68002;52.310;6.990;2023-05-10T01:21:13;10.73;;;4.85;;
78686;SDS011;68002;52.310;6.990;2023-05-10T01:34:59;12.20;;;6.87;;
78686;SDS011;68002;52.310;6.990;2023-05-10T01:43:21;12.57;;;6.25;;
78686;SDS011;68002;52.310;6.990;2023-05-10T01:46:14;12.88;;;5.90;;
78686;SDS011;68002;52.310;6.990;2023-05-10T01:48:42;13.77;;;5.97;;
78686;SDS011;68002;52.310;6.990;2023-05-10T01:51:17;11.27;;;5.68;;
78686;SDS011;68002;52.310;6.990;2023-05-10T01:53:47;13.68;;;6.45;;
78686;SDS011;68002;52.310;6.990;2023-05-10T01:56:13;13.63;;;6.30;;
78686;SDS011;68002;52.310;6.990;2023-05-10T01:58:40;13.70;;;6.97;;
78686;SDS011;68002;52.310;6.990;2023-05-10T02:01:09;13.18;;;6.15;;
78686;SDS011;68002;52.310;6.990;2023-05-10T02:03:35;13.68;;;5.88;;
78686;SDS011;68002;52.310;6.990;2023-05-10T02:06:02;13.07;;;6.10;;
78686;SDS011;68002;52.310;6.990;2023-05-10T02:08:29;12.63;;;5.90;;
78686;SDS011;68002;52.310;6.990;2023-05-10T02:10:56;16.17;;;7.10;;
78686;SDS011;68002;52.310;6.990;2023-05-10T02:13:23;15.15;;;6.63;;
78686;SDS011;68002;52.310;6.990;2023-05-10T02:15:50;12.65;;;5.95;;
78686;SDS011;68002;52.310;6.990;2023-05-10T02:18:17;14.73;;;7.03;;
78686;SDS011;68002;52.310;6.990;2023-05-10T02:20:44;16.60;;;6.70;;
78686;SDS011;68002;52.310;6.990;2023-05-10T02:23:11;16.23;;;7.18;;
78686;SDS011;68002;52.310;6.990;2023-05-10T02:25:37;16.33;;;6.10;;
78686;SDS011;68002;52.310;6.990;2023-05-10T02:28:03;16.02;;;6.35;;
78686;SDS011;68002;52.310;6.990;2023-05-10T02:30:31;13.02;;;5.78;;
78686;SDS011;68002;52.310;6.990;2023-05-10T02:32:58;15.55;;;6.78;;
78686;SDS011;68002;52.310;6.990;2023-05-10T02:35:25;15.00;;;6.18;;
78686;SDS011;68002;52.310;6.990;2023-05-10T02:37:52;15.43;;;7.20;;
78686;SDS011;68002;52.310;6.990;2023-05-10T02:40:18;14.43;;;5.55;;
78686;SDS011;68002;52.310;6.990;2023-05-10T02:42:46;15.18;;;7.20;;
78686;SDS011;68002;52.310;6.990;2023-05-10T02:45:13;15.15;;;7.45;;
78686;SDS011;68002;52.310;6.990;2023-05-10T02:47:45;14.82;;;6.10;;
78686;SDS011;68002;52.310;6.990;2023-05-10T02:50:10;14.53;;;6.27;;
78686;SDS011;68002;52.310;6.990;2023-05-10T02:52:39;13.20;;;5.33;;
78686;SDS011;68002;52.310;6.990;2023-05-10T02:55:09;17.20;;;6.32;;
78686;SDS011;68002;52.310;6.990;2023-05-10T02:57:38;13.77;;;6.20;;
78686;SDS011;68002;52.310;6.990;2023-05-10T03:00:08;14.65;;;6.60;;
78686;SDS011;68002;52.310;6.990;2023-05-10T03:02:33;15.45;;;6.38;;
78686;SDS011;68002;52.310;6.990;2023-05-10T03:04:58;16.60;;;6.90;;
78686;SDS011;68002;52.310;6.990;2023-05-10T03:07:24;13.97;;;6.20;;
78686;SDS011;68002;52.310;6.990;2023-05-10T03:09:49;15.03;;;6.73;;
78686;SDS011;68002;52.310;6.990;2023-05-10T03:15:22;18.35;;;7.70;;
78686;SDS011;68002;52.310;6.990;2023-05-10T03:20:47;14.88;;;7.15;;
78686;SDS011;68002;52.310;6.990;2023-05-10T03:23:16;14.73;;;6.57;;
78686;SDS011;68002;52.310;6.990;2023-05-10T03:26:05;14.57;;;6.57;;
78686;SDS011;68002;52.310;6.990;2023-05-10T03:28:33;13.57;;;6.57;;
78686;SDS011;68002;52.310;6.990;2023-05-10T03:30:59;14.60;;;6.93;;
78686;SDS011;68002;52.310;6.990;2023-05-10T03:33:24;13.18;;;6.13;;
78686;SDS011;68002;52.310;6.990;2023-05-10T03:35:50;12.93;;;6.43;;
78686;SDS011;68002;52.310;6.990;2023-05-10T03:38:15;14.70;;;6.83;;
78686;SDS011;68002;52.310;6.990;2023-05-10T03:40:40;15.53;;;7.07;;
78686;SDS011;68002;52.310;6.990;2023-05-10T03:43:05;13.93;;;6.60;;
78686;SDS011;68002;52.310;6.990;2023-05-10T03:45:31;14.37;;;6.80;;
78686;SDS011;68002;52.310;6.990;2023-05-10T03:47:56;17.10;;;7.32;;
78686;SDS011;68002;52.310;6.990;2023-05-10T03:50:22;11.50;;;5.30;;
78686;SDS011;68002;52.310;6.990;2023-05-10T03:52:48;16.17;;;8.18;;
78686;SDS011;68002;52.310;6.990;2023-05-10T03:55:13;15.73;;;7.13;;
78686;SDS011;68002;52.310;6.990;2023-05-10T03:57:39;17.30;;;7.65;;
78686;SDS011;68002;52.310;6.990;2023-05-10T04:00:04;17.30;;;7.27;;
78686;SDS011;68002;52.310;6.990;2023-05-10T04:02:30;19.23;;;8.43;;
78686;SDS011;68002;52.310;6.990;2023-05-10T04:04:55;19.13;;;8.30;;
78686;SDS011;68002;52.310;6.990;2023-05-10T04:07:21;20.63;;;7.63;;
78686;SDS011;68002;52.310;6.990;2023-05-10T04:09:46;24.27;;;9.27;;
78686;SDS011;68002;52.310;6.990;2023-05-10T04:12:11;18.57;;;8.47;;
78686;SDS011;68002;52.310;6.990;2023-05-10T04:14:36;19.17;;;7.63;;
78686;SDS011;68002;52.310;6.990;2023-05-10T04:17:02;21.20;;;7.90;;
78686;SDS011;68002;52.310;6.990;2023-05-10T04:19:30;20.17;;;8.97;;
78686;SDS011;68002;52.310;6.990;2023-05-10T04:21:55;18.55;;;8.02;;
78686;SDS011;68002;52.310;6.990;2023-05-10T04:24:21;21.77;;;8.27;;
78686;SDS011;68002;52.310;6.990;2023-05-10T04:26:46;21.07;;;8.70;;
78686;SDS011;68002;52.310;6.990;2023-05-10T04:29:11;27.90;;;10.43;;
78686;SDS011;68002;52.310;6.990;2023-05-10T04:31:36;27.10;;;8.87;;
78686;SDS011;68002;52.310;6.990;2023-05-10T04:34:02;26.10;;;9.97;;
78686;SDS011;68002;52.310;6.990;2023-05-10T04:36:27;26.60;;;9.60;;
78686;SDS011;68002;52.310;6.990;2023-05-10T04:38:52;26.70;;;9.67;;
78686;SDS011;68002;52.310;6.990;2023-05-10T04:41:17;33.50;;;9.83;;
78686;SDS011;68002;52.310;6.990;2023-05-10T04:43:43;32.17;;;11.37;;
78686;SDS011;68002;52.310;6.990;2023-05-10T04:46:08;29.37;;;11.03;;
78686;SDS011;68002;52.310;6.990;2023-05-10T04:48:33;29.10;;;10.50;;
78686;SDS011;68002;52.310;6.990;2023-05-10T04:50:58;31.63;;;11.00;;
78686;SDS011;68002;52.310;6.990;2023-05-10T04:53:23;25.40;;;8.97;;
78686;SDS011;68002;52.310;6.990;2023-05-10T04:55:49;33.17;;;11.10;;
78686;SDS011;68002;52.310;6.990;2023-05-10T04:58:14;37.80;;;11.40;;
78686;SDS011;68002;52.310;6.990;2023-05-10T05:00:39;36.17;;;12.50;;
78686;SDS011;68002;52.310;6.990;2023-05-10T05:03:04;33.00;;;12.17;;
78686;SDS011;68002;52.310;6.990;2023-05-10T05:05:30;37.87;;;11.77;;
78686;SDS011;68002;52.310;6.990;2023-05-10T05:07:55;34.92;;;12.27;;
78686;SDS011;68002;52.310;6.990;2023-05-10T05:10:20;38.03;;;13.57;;
78686;SDS011;68002;52.310;6.990;2023-05-10T05:12:46;33.80;;;10.67;;
78686;SDS011;68002;52.310;6.990;2023-05-10T05:15:11;43.10;;;13.63;;
78686;SDS011;68002;52.310;6.990;2023-05-10T05:17:36;37.33;;;11.63;;
78686;SDS011;68002;52.310;6.990;2023-05-10T05:20:02;41.47;;;14.27;;
78686;SDS011;68002;52.310;6.990;2023-05-10T05:22:28;36.13;;;11.68;;
78686;SDS011;68002;52.310;6.990;2023-05-10T05:24:53;38.40;;;14.20;;
78686;SDS011;68002;52.310;6.990;2023-05-10T05:27:19;46.70;;;14.75;;
78686;SDS011;68002;52.310;6.990;2023-05-10T05:29:44;45.47;;;15.17;;
78686;SDS011;68002;52.310;6.990;2023-05-10T05:32:09;46.77;;;12.50;;
78686;SDS011;68002;52.310;6.990;2023-05-10T05:34:34;47.50;;;15.10;;
78686;SDS011;68002;52.310;6.990;2023-05-10T05:37:00;47.83;;;15.97;;
78686;SDS011;68002;52.310;6.990;2023-05-10T05:39:25;51.33;;;16.07;;
78686;SDS011;68002;52.310;6.990;2023-05-10T05:41:50;51.80;;;15.40;;
78686;SDS011;68002;52.310;6.990;2023-05-10T05:44:15;50.23;;;14.93;;
78686;SDS011;68002;52.310;6.990;2023-05-10T05:46:40;49.60;;;14.70;;
78686;SDS011;68002;52.310;6.990;2023-05-10T05:49:06;51.00;;;15.20;;
78686;SDS011;68002;52.310;6.990;2023-05-10T05:51:31;48.73;;;15.03;;
78686;SDS011;68002;52.310;6.990;2023-05-10T05:53:56;59.03;;;17.40;;
78686;SDS011;68002;52.310;6.990;2023-05-10T05:56:21;51.60;;;15.23;;
78686;SDS011;68002;52.310;6.990;2023-05-10T05:58:46;54.53;;;16.30;;
78686;SDS011;68002;52.310;6.990;2023-05-10T06:01:12;54.13;;;16.67;;
78686;SDS011;68002;52.310;6.990;2023-05-10T06:03:37;57.40;;;17.47;;
78686;SDS011;68002;52.310;6.990;2023-05-10T06:06:02;46.70;;;15.63;;
78686;SDS011;68002;52.310;6.990;2023-05-10T06:08:27;57.40;;;16.93;;
78686;SDS011;68002;52.310;6.990;2023-05-10T06:10:52;45.00;;;15.40;;
78686;SDS011;68002;52.310;6.990;2023-05-10T06:13:18;57.60;;;17.17;;
78686;SDS011;68002;52.310;6.990;2023-05-10T06:15:43;50.30;;;17.47;;
78686;SDS011;68002;52.310;6.990;2023-05-10T06:18:08;54.63;;;19.90;;
78686;SDS011;68002;52.310;6.990;2023-05-10T06:20:33;55.13;;;17.03;;
78686;SDS011;68002;52.310;6.990;2023-05-10T06:22:59;50.50;;;16.53;;
78686;SDS011;68002;52.310;6.990;2023-05-10T06:25:24;45.50;;;14.77;;
78686;SDS011;68002;52.310;6.990;2023-05-10T06:27:49;47.83;;;16.93;;
78686;SDS011;68002;52.310;6.990;2023-05-10T06:30:14;47.47;;;16.27;;
78686;SDS011;68002;52.310;6.990;2023-05-10T06:32:40;51.25;;;17.45;;
78686;SDS011;68002;52.310;6.990;2023-05-10T06:35:06;49.35;;;18.17;;
78686;SDS011;68002;52.310;6.990;2023-05-10T06:37:32;53.80;;;18.55;;
78686;SDS011;68002;52.310;6.990;2023-05-10T06:39:57;50.23;;;16.67;;
78686;SDS011;68002;52.310;6.990;2023-05-10T06:42:22;52.77;;;17.67;;
78686;SDS011;68002;52.310;6.990;2023-05-10T06:44:47;44.10;;;14.60;;
78686;SDS011;68002;52.310;6.990;2023-05-10T06:47:12;48.87;;;17.43;;
78686;SDS011;68002;52.310;6.990;2023-05-10T06:49:38;48.00;;;16.40;;
78686;SDS011;68002;52.310;6.990;2023-05-10T06:52:03;44.80;;;17.77;;
78686;SDS011;68002;52.310;6.990;2023-05-10T06:54:28;43.17;;;16.37;;
78686;SDS011;68002;52.310;6.990;2023-05-10T06:56:53;45.00;;;16.10;;
78686;SDS011;68002;52.310;6.990;2023-05-10T06:59:19;48.03;;;16.97;;
78686;SDS011;68002;52.310;6.990;2023-05-10T07:01:44;45.87;;;15.23;;
78686;SDS011;68002;52.310;6.990;2023-05-10T07:04:09;50.60;;;17.33;;
78686;SDS011;68002;52.310;6.990;2023-05-10T07:06:34;44.63;;;16.00;;
78686;SDS011;68002;52.310;6.990;2023-05-10T07:09:00;42.53;;;15.77;;
78686;SDS011;68002;52.310;6.990;2023-05-10T07:11:25;40.65;;;14.90;;
78686;SDS011;68002;52.310;6.990;2023-05-10T07:13:50;43.77;;;16.10;;
78686;SDS011;68002;52.310;6.990;2023-05-10T07:16:16;39.87;;;15.43;;
78686;SDS011;68002;52.310;6.990;2023-05-10T07:18:41;37.97;;;12.97;;
78686;SDS011;68002;52.310;6.990;2023-05-10T07:21:06;36.50;;;13.53;;
78686;SDS011;68002;52.310;6.990;2023-05-10T07:23:31;40.10;;;16.10;;
78686;SDS011;68002;52.310;6.990;2023-05-10T07:25:56;40.90;;;15.83;;
78686;SDS011;68002;52.310;6.990;2023-05-10T07:28:22;41.77;;;15.27;;
78686;SDS011;68002;52.310;6.990;2023-05-10T07:30:47;38.43;;;14.33;;
78686;SDS011;68002;52.310;6.990;2023-05-10T07:33:13;44.83;;;15.93;;
78686;SDS011;68002;52.310;6.990;2023-05-10T07:35:39;40.00;;;14.95;;
78686;SDS011;68002;52.310;6.990;2023-05-10T07:38:04;37.03;;;14.27;;
78686;SDS011;68002;52.310;6.990;2023-05-10T07:40:30;40.50;;;15.73;;
78686;SDS011;68002;52.310;6.990;2023-05-10T07:42:55;39.27;;;15.27;;
78686;SDS011;68002;52.310;6.990;2023-05-10T07:45:20;37.10;;;15.82;;
78686;SDS011;68002;52.310;6.990;2023-05-10T07:47:46;36.55;;;14.15;;
78686;SDS011;68002;52.310;6.990;2023-05-10T07:50:11;32.27;;;13.67;;
78686;SDS011;68002;52.310;6.990;2023-05-10T07:52:36;31.50;;;13.03;;
78686;SDS011;68002;52.310;6.990;2023-05-10T07:55:01;35.83;;;14.27;;
78686;SDS011;68002;52.310;6.990;2023-05-10T07:57:27;34.33;;;13.63;;
78686;SDS011;68002;52.310;6.990;2023-05-10T07:59:52;32.73;;;11.87;;
78686;SDS011;68002;52.310;6.990;2023-05-10T08:02:17;34.30;;;13.40;;
78686;SDS011;68002;52.310;6.990;2023-05-10T08:04:42;31.00;;;11.90;;
78686;SDS011;68002;52.310;6.990;2023-05-10T08:07:08;28.13;;;12.27;;
78686;SDS011;68002;52.310;6.990;2023-05-10T08:09:33;34.20;;;13.97;;
78686;SDS011;68002;52.310;6.990;2023-05-10T08:11:58;33.13;;;13.10;;
78686;SDS011;68002;52.310;6.990;2023-05-10T08:14:23;28.97;;;12.63;;
78686;SDS011;68002;52.310;6.990;2023-05-10T08:16:48;34.43;;;14.40;;
78686;SDS011;68002;52.310;6.990;2023-05-10T08:19:14;33.33;;;12.47;;
78686;SDS011;68002;52.310;6.990;2023-05-10T08:21:39;27.43;;;11.53;;
78686;SDS011;68002;52.310;6.990;2023-05-10T08:24:04;31.27;;;12.60;;
78686;SDS011;68002;52.310;6.990;2023-05-10T08:26:30;30.52;;;11.40;;
78686;SDS011;68002;52.310;6.990;2023-05-10T08:28:55;31.48;;;11.65;;
78686;SDS011;68002;52.310;6.990;2023-05-10T08:31:21;32.17;;;12.70;;
78686;SDS011;68002;52.310;6.990;2023-05-10T08:33:46;30.30;;;11.30;;
78686;SDS011;68002;52.310;6.990;2023-05-10T08:36:11;31.33;;;12.63;;
78686;SDS011;68002;52.310;6.990;2023-05-10T08:38:37;29.60;;;12.23;;
78686;SDS011;68002;52.310;6.990;2023-05-10T08:41:02;34.15;;;13.57;;
78686;SDS011;68002;52.310;6.990;2023-05-10T08:43:28;37.10;;;15.18;;
78686;SDS011;68002;52.310;6.990;2023-05-10T08:45:54;37.53;;;14.82;;
78686;SDS011;68002;52.310;6.990;2023-05-10T08:48:20;37.47;;;14.48;;
78686;SDS011;68002;52.310;6.990;2023-05-10T08:50:48;33.88;;;12.68;;
78686;SDS011;68002;52.310;6.990;2023-05-10T08:53:17;32.13;;;12.43;;
78686;SDS011;68002;52.310;6.990;2023-05-10T08:55:43;31.42;;;11.68;;
78686;SDS011;68002;52.310;6.990;2023-05-10T08:58:09;31.60;;;11.40;;
78686;SDS011;68002;52.310;6.990;2023-05-10T09:00:34;32.30;;;11.23;;
78686;SDS011;68002;52.310;6.990;2023-05-10T09:03:03;38.00;;;13.32;;
78686;SDS011;68002;52.310;6.990;2023-05-10T09:05:29;39.47;;;13.23;;
78686;SDS011;68002;52.310;6.990;2023-05-10T09:07:54;34.50;;;12.03;;
78686;SDS011;68002;52.310;6.990;2023-05-10T09:10:20;40.00;;;13.23;;
78686;SDS011;68002;52.310;6.990;2023-05-10T09:12:45;41.03;;;13.23;;
78686;SDS011;68002;52.310;6.990;2023-05-10T09:15:13;37.53;;;13.70;;
78686;SDS011;68002;52.310;6.990;2023-05-10T09:17:40;39.25;;;13.15;;
78686;SDS011;68002;52.310;6.990;2023-05-10T09:20:07;35.13;;;11.43;;
78686;SDS011;68002;52.310;6.990;2023-05-10T09:22:35;39.78;;;11.80;;
78686;SDS011;68002;52.310;6.990;2023-05-10T09:25:04;39.45;;;14.02;;
78686;SDS011;68002;52.310;6.990;2023-05-10T09:27:31;37.88;;;12.85;;
78686;SDS011;68002;52.310;6.990;2023-05-10T09:29:57;34.15;;;11.65;;
78686;SDS011;68002;52.310;6.990;2023-05-10T09:32:22;32.93;;;13.30;;
78686;SDS011;68002;52.310;6.990;2023-05-10T09:35:05;37.00;;;12.93;;
78686;SDS011;68002;52.310;6.990;2023-05-10T09:37:32;37.47;;;13.10;;
78686;SDS011;68002;52.310;6.990;2023-05-10T09:39:57;40.97;;;13.10;;
78686;SDS011;68002;52.310;6.990;2023-05-10T09:42:22;34.20;;;11.90;;
78686;SDS011;68002;52.310;6.990;2023-05-10T09:44:47;34.67;;;12.30;;
78686;SDS011;68002;52.310;6.990;2023-05-10T09:47:17;34.07;;;14.20;;
78686;SDS011;68002;52.310;6.990;2023-05-10T09:49:42;32.67;;;12.90;;
78686;SDS011;68002;52.310;6.990;2023-05-10T09:52:07;34.17;;;12.03;;
78686;SDS011;68002;52.310;6.990;2023-05-10T09:54:33;34.50;;;13.30;;
78686;SDS011;68002;52.310;6.990;2023-05-10T09:56:59;31.40;;;12.27;;
78686;SDS011;68002;52.310;6.990;2023-05-10T09:59:25;33.42;;;12.77;;
78686;SDS011;68002;52.310;6.990;2023-05-10T10:01:51;31.17;;;11.30;;
78686;SDS011;68002;52.310;6.990;2023-05-10T10:04:17;31.20;;;12.68;;
78686;SDS011;68002;52.310;6.990;2023-05-10T10:06:45;30.15;;;11.77;;
78686;SDS011;68002;52.310;6.990;2023-05-10T10:09:10;32.23;;;13.33;;
78686;SDS011;68002;52.310;6.990;2023-05-10T10:11:36;30.00;;;11.50;;
78686;SDS011;68002;52.310;6.990;2023-05-10T10:14:02;28.30;;;11.35;;
78686;SDS011;68002;52.310;6.990;2023-05-10T10:16:28;28.30;;;11.60;;
78686;SDS011;68002;52.310;6.990;2023-05-10T10:18:55;32.03;;;11.60;;
78686;SDS011;68002;52.310;6.990;2023-05-10T10:21:20;24.75;;;10.68;;
78686;SDS011;68002;52.310;6.990;2023-05-10T10:23:46;24.33;;;9.55;;
78686;SDS011;68002;52.310;6.990;2023-05-10T10:26:12;19.57;;;8.67;;
78686;SDS011;68002;52.310;6.990;2023-05-10T10:28:45;23.95;;;9.10;;
78686;SDS011;68002;52.310;6.990;2023-05-10T10:31:25;19.13;;;8.18;;
78686;SDS011;68002;52.310;6.990;2023-05-10T10:36:40;16.30;;;7.72;;
78686;SDS011;68002;52.310;6.990;2023-05-10T10:39:09;16.70;;;7.28;;
78686;SDS011;68002;52.310;6.990;2023-05-10T10:41:36;15.68;;;7.55;;
78686;SDS011;68002;52.310;6.990;2023-05-10T10:54:58;14.75;;;6.45;;
78686;SDS011;68002;52.310;6.990;2023-05-10T10:59:49;12.32;;;6.65;;
78686;SDS011;68002;52.310;6.990;2023-05-10T11:02:33;11.73;;;6.33;;
78686;SDS011;68002;52.310;6.990;2023-05-10T11:04:59;12.15;;;6.10;;
78686;SDS011;68002;52.310;6.990;2023-05-10T11:07:24;12.57;;;6.60;;
78686;SDS011;68002;52.310;6.990;2023-05-10T11:09:49;13.60;;;6.47;;
78686;SDS011;68002;52.310;6.990;2023-05-10T11:12:15;14.63;;;6.97;;
78686;SDS011;68002;52.310;6.990;2023-05-10T11:14:40;14.83;;;7.00;;
78686;SDS011;68002;52.310;6.990;2023-05-10T11:17:27;13.10;;;6.30;;
78686;SDS011;68002;52.310;6.990;2023-05-10T11:22:50;11.38;;;5.75;;
78686;SDS011;68002;52.310;6.990;2023-05-10T11:25:19;11.35;;;6.05;;
78686;SDS011;68002;52.310;6.990;2023-05-10T11:27:45;14.20;;;6.75;;
78686;SDS011;68002;52.310;6.990;2023-05-10T11:30:12;10.02;;;5.93;;
78686;SDS011;68002;52.310;6.990;2023-05-10T11:32:39;12.00;;;6.70;;
78686;SDS011;68002;52.310;6.990;2023-05-10T11:35:07;11.00;;;5.95;;
78686;SDS011;68002;52.310;6.990;2023-05-10T11:37:36;11.18;;;6.60;;
78686;SDS011;68002;52.310;6.990;2023-05-10T11:40:03;9.98;;;5.68;;
78686;SDS011;68002;52.310;6.990;2023-05-10T11:42:29;9.95;;;5.53;;
78686;SDS011;68002;52.310;6.990;2023-05-10T11:44:54;11.07;;;5.40;;
78686;SDS011;68002;52.310;6.990;2023-05-10T11:47:19;10.67;;;5.57;;
78686;SDS011;68002;52.310;6.990;2023-05-10T11:49:45;11.23;;;5.13;;
78686;SDS011;68002;52.310;6.990;2023-05-10T11:52:11;8.93;;;5.03;;
78686;SDS011;68002;52.310;6.990;2023-05-10T11:54:36;11.23;;;5.70;;
78686;SDS011;68002;52.310;6.990;2023-05-10T11:57:02;9.17;;;4.87;;
78686;SDS011;68002;52.310;6.990;2023-05-10T11:59:28;10.57;;;5.72;;
78686;SDS011;68002;52.310;6.990;2023-05-10T12:01:53;11.10;;;5.67;;
78686;SDS011;68002;52.310;6.990;2023-05-10T12:04:19;9.95;;;5.18;;
78686;SDS011;68002;52.310;6.990;2023-05-10T12:06:44;8.57;;;4.43;;
78686;SDS011;68002;52.310;6.990;2023-05-10T12:09:10;8.45;;;4.32;;
78686;SDS011;68002;52.310;6.990;2023-05-10T12:11:38;9.40;;;4.80;;
78686;SDS011;68002;52.310;6.990;2023-05-10T12:14:05;7.53;;;4.55;;
78686;SDS011;68002;52.310;6.990;2023-05-10T12:16:30;8.10;;;4.20;;
78686;SDS011;68002;52.310;6.990;2023-05-10T12:18:56;8.30;;;4.00;;
78686;SDS011;68002;52.310;6.990;2023-05-10T12:21:23;8.07;;;4.47;;
78686;SDS011;68002;52.310;6.990;2023-05-10T12:23:50;9.02;;;5.05;;
78686;SDS011;68002;52.310;6.990;2023-05-10T12:26:16;8.27;;;4.32;;
78686;SDS011;68002;52.310;6.990;2023-05-10T12:28:42;9.20;;;4.50;;
78686;SDS011;68002;52.310;6.990;2023-05-10T12:31:08;8.82;;;4.10;;
78686;SDS011;68002;52.310;6.990;2023-05-10T12:33:37;9.82;;;4.22;;
78686;SDS011;68002;52.310;6.990;2023-05-10T12:36:04;8.52;;;4.35;;
78686;SDS011;68002;52.310;6.990;2023-05-10T12:38:36;8.80;;;4.47;;
78686;SDS011;68002;52.310;6.990;2023-05-10T12:41:12;10.07;;;5.32;;
78686;SDS011;68002;52.310;6.990;2023-05-10T12:43:41;10.23;;;5.05;;
78686;SDS011;68002;52.310;6.990;2023-05-10T12:48:36;12.15;;;6.18;;
78686;SDS011;68002;52.310;6.990;2023-05-10T12:51:03;10.18;;;5.80;;
78686;SDS011;68002;52.310;6.990;2023-05-10T12:53:29;14.00;;;5.97;;
78686;SDS011;68002;52.310;6.990;2023-05-10T12:55:54;10.93;;;5.43;;
78686;SDS011;68002;52.310;6.990;2023-05-10T12:58:20;10.48;;;5.80;;
78686;SDS011;68002;52.310;6.990;2023-05-10T13:00:45;10.37;;;5.30;;
78686;SDS011;68002;52.310;6.990;2023-05-10T13:03:10;11.80;;;5.70;;
78686;SDS011;68002;52.310;6.990;2023-05-10T13:05:36;10.23;;;5.67;;
78686;SDS011;68002;52.310;6.990;2023-05-10T13:08:01;11.30;;;5.47;;
78686;SDS011;68002;52.310;6.990;2023-05-10T13:10:28;12.23;;;5.35;;
78686;SDS011;68002;52.310;6.990;2023-05-10T13:12:54;12.68;;;5.72;;
78686;SDS011;68002;52.310;6.990;2023-05-10T13:15:20;9.40;;;5.33;;
78686;SDS011;68002;52.310;6.990;2023-05-10T13:17:45;10.87;;;5.30;;
78686;SDS011;68002;52.310;6.990;2023-05-10T13:20:10;10.53;;;5.20;;
78686;SDS011;68002;52.310;6.990;2023-05-10T13:22:36;8.88;;;4.63;;
78686;SDS011;68002;52.310;6.990;2023-05-10T13:25:01;9.33;;;4.73;;
78686;SDS011;68002;52.310;6.990;2023-05-10T13:27:26;9.00;;;4.20;;
78686;SDS011;68002;52.310;6.990;2023-05-10T13:29:52;10.27;;;5.03;;
78686;SDS011;68002;52.310;6.990;2023-05-10T13:32:17;8.30;;;4.47;;
78686;SDS011;68002;52.310;6.990;2023-05-10T13:34:43;8.93;;;4.82;;
78686;SDS011;68002;52.310;6.990;2023-05-10T13:37:08;11.73;;;5.00;;
78686;SDS011;68002;52.310;6.990;2023-05-10T13:39:34;6.80;;;3.77;;
78686;SDS011;68002;52.310;6.990;2023-05-10T13:41:59;7.60;;;4.03;;
78686;SDS011;68002;52.310;6.990;2023-05-10T13:44:24;6.97;;;4.00;;
78686;SDS011;68002;52.310;6.990;2023-05-10T13:46:49;8.50;;;3.77;;
78686;SDS011;68002;52.310;6.990;2023-05-10T13:49:15;7.07;;;3.70;;
78686;SDS011;68002;52.310;6.990;2023-05-10T13:51:40;6.07;;;3.70;;
78686;SDS011;68002;52.310;6.990;2023-05-10T13:54:07;7.38;;;3.90;;
78686;SDS011;68002;52.310;6.990;2023-05-10T13:56:32;6.83;;;3.63;;
78686;SDS011;68002;52.310;6.990;2023-05-10T13:58:57;6.23;;;3.20;;
78686;SDS011;68002;52.310;6.990;2023-05-10T14:01:22;5.67;;;3.17;;
78686;SDS011;68002;52.310;6.990;2023-05-10T14:03:47;5.77;;;3.63;;
78686;SDS011;68002;52.310;6.990;2023-05-10T14:06:13;6.83;;;2.90;;
78686;SDS011;68002;52.310;6.990;2023-05-10T14:08:38;6.97;;;3.83;;
78686;SDS011;68002;52.310;6.990;2023-05-10T14:11:03;6.73;;;3.93;;
78686;SDS011;68002;52.310;6.990;2023-05-10T14:13:28;5.77;;;2.87;;
78686;SDS011;68002;52.310;6.990;2023-05-10T14:15:54;6.17;;;3.77;;
78686;SDS011;68002;52.310;6.990;2023-05-10T14:18:19;6.38;;;3.58;;
78686;SDS011;68002;52.310;6.990;2023-05-10T14:20:45;6.32;;;4.03;;
78686;SDS011;68002;52.310;6.990;2023-05-10T14:23:10;6.03;;;3.17;;
78686;SDS011;68002;52.310;6.990;2023-05-10T14:25:35;5.87;;;3.37;;
78686;SDS011;68002;52.310;6.990;2023-05-10T14:28:00;8.80;;;3.23;;
78686;SDS011;68002;52.310;6.990;2023-05-10T14:30:26;6.20;;;3.40;;
78686;SDS011;68002;52.310;6.990;2023-05-10T14:32:51;8.13;;;3.70;;
78686;SDS011;68002;52.310;6.990;2023-05-10T14:35:16;7.50;;;4.03;;
78686;SDS011;68002;52.310;6.990;2023-05-10T14:37:41;6.10;;;3.47;;
78686;SDS011;68002;52.310;6.990;2023-05-10T14:40:07;6.50;;;3.53;;
78686;SDS011;68002;52.310;6.990;2023-05-10T14:42:32;6.47;;;3.80;;
78686;SDS011;68002;52.310;6.990;2023-05-10T14:44:58;5.87;;;3.40;;
78686;SDS011;68002;52.310;6.990;2023-05-10T14:47:23;6.63;;;3.70;;
78686;SDS011;68002;52.310;6.990;2023-05-10T14:49:48;6.87;;;3.90;;
78686;SDS011;68002;52.310;6.990;2023-05-10T14:52:13;6.70;;;3.53;;
78686;SDS011;68002;52.310;6.990;2023-05-10T14:54:38;7.93;;;4.03;;
78686;SDS011;68002;52.310;6.990;2023-05-10T14:57:04;7.90;;;4.23;;
78686;SDS011;68002;52.310;6.990;2023-05-10T14:59:29;8.03;;;3.83;;
78686;SDS011;68002;52.310;6.990;2023-05-10T15:01:54;7.30;;;4.37;;
78686;SDS011;68002;52.310;6.990;2023-05-10T15:04:19;6.50;;;3.20;;
78686;SDS011;68002;52.310;6.990;2023-05-10T15:06:44;6.83;;;3.03;;
78686;SDS011;68002;52.310;6.990;2023-05-10T15:09:10;6.80;;;3.33;;
78686;SDS011;68002;52.310;6.990;2023-05-10T15:11:35;4.80;;;2.90;;